Iron Lady — WTK5059 — position and weather

sailwx.info

Track history (hours):
 
Tides and Currents Weather Stations Pressure Air Temp Water Temp Dewpoint Dewpoint Depression Visibility Wind Speed Wind Dir Waves Ship Positions

Iron Lady

Owner: IRON LADY INC, SOUTH BEND, WA. More information available from US FCC via Universal Licensing System and Coast Guard Vessel Documentation Center.

Last reported at 2015-Feb-16 18:32 UTC. Time now 2015-Feb-28 23:04 UTC.
Position N 46°16' W 124°04'.
Warning: this ship's position is 12 days out of date.

Type: Fishing. MMSI: 367037240.

Date/timePositionNaut miles runAvg speedWind from/ knotsBaromVisibWave heightAir tempDewpointWater temp
2015-Feb-16 18:32N 46°16' W 124°04'8 8.1
2015-Feb-16 17:33N 46°11' W 123°54'2 1.7
2015-Feb-16 16:33N 46°11' W 123°52'3 2.6
2015-Feb-16 15:33N 46°10' W 123°55'0 0.0
2015-Feb-16 14:33N 46°10' W 123°55'0 0.0
2015-Feb-16 13:33N 46°10' W 123°55'0 0.0
2015-Feb-16 12:33N 46°10' W 123°55'0 0.0
2015-Feb-16 11:33N 46°10' W 123°55'0 0.0
2015-Feb-16 10:33N 46°10' W 123°55'0 0.0
2015-Feb-16 09:33N 46°10' W 123°55'0 0.0
2015-Feb-16 08:33N 46°10' W 123°55'0 0.0
2015-Feb-16 07:34N 46°10' W 123°55'0 0.0
2015-Feb-16 06:33N 46°10' W 123°55'0 0.0
2015-Feb-16 05:32N 46°10' W 123°55'0 0.0
2015-Feb-16 04:33N 46°10' W 123°55'0 0.0
2015-Feb-16 03:33N 46°10' W 123°55'0 0.0
2015-Feb-16 02:33N 46°10' W 123°55'0 0.0
2015-Feb-16 01:33N 46°10' W 123°55'0 0.0
2015-Feb-16 00:33N 46°10' W 123°55'0 0.0
2015-Feb-15 23:33N 46°10' W 123°55'0 0.0
2015-Feb-15 22:33N 46°10' W 123°55'0 0.0
2015-Feb-15 21:33N 46°10' W 123°55'0 0.0
2015-Feb-15 20:33N 46°10' W 123°55'0 0.0
2015-Feb-15 19:33N 46°10' W 123°55'0 0.0
2015-Feb-15 18:33N 46°10' W 123°55'0 0.0
2015-Feb-15 17:33N 46°10' W 123°55'0 0.0
2015-Feb-15 16:33N 46°10' W 123°55'0 0.0
2015-Feb-15 15:33N 46°10' W 123°55'0 0.0
2015-Feb-15 14:33N 46°10' W 123°55'0 0.0
2015-Feb-15 13:33N 46°10' W 123°55'0 0.0
2015-Feb-15 12:34N 46°10' W 123°55'0 0.0
2015-Feb-15 11:33N 46°10' W 123°55'0 0.0
2015-Feb-15 10:33N 46°10' W 123°55'0 0.0
2015-Feb-15 09:34N 46°10' W 123°55'0 0.0
2015-Feb-15 08:33N 46°10' W 123°55'0 0.0
2015-Feb-15 07:33N 46°10' W 123°55'0 0.0
2015-Feb-15 06:33N 46°10' W 123°55'0 0.0
2015-Feb-15 05:33N 46°10' W 123°55'0 0.0
2015-Feb-15 04:33N 46°10' W 123°55'0 0.0
2015-Feb-15 03:33N 46°10' W 123°55'0 0.0
2015-Feb-15 02:33N 46°10' W 123°55'0 0.0
2015-Feb-15 01:33N 46°10' W 123°55'0 0.0
2015-Feb-15 00:31N 46°10' W 123°55'0 0.0
2015-Feb-14 23:33N 46°10' W 123°55'0 0.0
2015-Feb-14 22:33N 46°10' W 123°55'0 0.0
2015-Feb-14 21:33N 46°10' W 123°55'0 0.0
2015-Feb-14 20:33N 46°10' W 123°55'0 0.0
2015-Feb-14 19:33N 46°10' W 123°55'0 0.0
2015-Feb-14 18:33N 46°10' W 123°55'0 0.0
2015-Feb-14 17:33N 46°10' W 123°55'0 0.0
2015-Feb-14 16:33N 46°10' W 123°55'0 0.0
2015-Feb-14 15:33N 46°10' W 123°55'0 0.0
2015-Feb-14 14:33N 46°10' W 123°55'0 0.0
2015-Feb-14 13:33N 46°10' W 123°55'0 0.0
2015-Feb-14 12:33N 46°10' W 123°55'0 0.0
2015-Feb-14 11:33N 46°10' W 123°55'0 0.0
2015-Feb-14 10:33N 46°10' W 123°55'0 0.0
2015-Feb-14 09:33N 46°10' W 123°55'0 0.0
2015-Feb-14 08:33N 46°10' W 123°55'0 0.0
2015-Feb-14 07:33N 46°10' W 123°55'0 0.0
2015-Feb-14 06:33N 46°10' W 123°55'0 0.0
2015-Feb-14 05:33N 46°10' W 123°55'0 0.0
2015-Feb-14 04:34N 46°10' W 123°55'0 0.0
2015-Feb-14 03:33N 46°10' W 123°55'0 0.0
2015-Feb-14 02:33N 46°10' W 123°55'0 0.0
2015-Feb-14 01:33N 46°10' W 123°55'0 0.0
2015-Feb-14 00:33N 46°10' W 123°55'0 0.0
2015-Feb-13 23:34N 46°10' W 123°55'0 0.0
2015-Feb-13 22:33N 46°10' W 123°55'0 0.0
2015-Feb-13 21:33N 46°10' W 123°55'0 0.0
2015-Feb-13 20:33N 46°10' W 123°55'0 0.0
2015-Feb-13 19:33N 46°10' W 123°55'3 3.5
2015-Feb-13 18:33N 46°12' W 123°50'1 0.9
2015-Feb-13 17:33N 46°11' W 123°51'0 0.0
2015-Feb-13 16:33N 46°11' W 123°51'0 0.0
2015-Feb-13 15:34N 46°11' W 123°51'0 0.0
2015-Feb-13 14:33N 46°11' W 123°51'0 0.0
2015-Feb-13 13:33N 46°11' W 123°51'2 1.8
2015-Feb-13 12:33N 46°11' W 123°54'1 1.3
2015-Feb-13 11:34N 46°10' W 123°55'0 0.0
2015-Feb-13 10:33N 46°10' W 123°55'0 0.0
2015-Feb-13 09:33N 46°10' W 123°55'0 0.0
2015-Feb-13 08:34N 46°10' W 123°55'0 0.0
2015-Feb-13 07:33N 46°10' W 123°55'0 0.0
2015-Feb-13 06:33N 46°10' W 123°55'0 0.0
2015-Feb-13 05:33N 46°10' W 123°55'0 0.0
2015-Feb-13 04:33N 46°10' W 123°55'0 0.0
2015-Feb-13 03:34N 46°10' W 123°55'0 0.0
2015-Feb-13 02:33N 46°10' W 123°55'0 0.0
2015-Feb-13 01:33N 46°10' W 123°55'0 0.0
2015-Feb-13 00:33N 46°10' W 123°55'2 2.5
2015-Feb-12 23:33N 46°12' W 123°56'  
2015-Feb-10 14:11N 46°14' W 124°08'6 8.8
2015-Feb-10 13:33N 46°15' W 123°60'6 5.6
2015-Feb-10 12:33N 46°10' W 123°55'0 0.0
2015-Feb-10 11:34N 46°10' W 123°55'0 0.0
2015-Feb-10 10:34N 46°10' W 123°55'0 0.0
2015-Feb-10 09:33N 46°10' W 123°55'0 0.0
2015-Feb-10 08:33N 46°10' W 123°55'0 0.0
2015-Feb-10 07:34N 46°10' W 123°55'0 0.0
2015-Feb-10 06:33N 46°10' W 123°55'0 0.0
2015-Feb-10 05:33N 46°10' W 123°55'0 0.0
2015-Feb-10 04:33N 46°10' W 123°55'0 0.0
2015-Feb-10 03:33N 46°10' W 123°55'0 0.0
2015-Feb-10 02:33N 46°10' W 123°55'0 0.0
2015-Feb-10 01:33N 46°10' W 123°55'0 0.0
2015-Feb-10 00:33N 46°10' W 123°55'0 0.0
2015-Feb-09 23:33N 46°10' W 123°55'0 0.0
2015-Feb-09 22:31N 46°10' W 123°55'0 0.0
2015-Feb-09 21:34N 46°10' W 123°55'0 0.0
2015-Feb-09 20:33N 46°10' W 123°55'0 0.0
2015-Feb-09 19:33N 46°10' W 123°55'1 1.4
2015-Feb-09 18:33N 46°11' W 123°54'2 1.5
2015-Feb-09 17:33N 46°11' W 123°51'3 2.6
2015-Feb-09 16:33N 46°10' W 123°55'0 0.0
2015-Feb-09 15:33N 46°10' W 123°55'0 0.0
2015-Feb-09 14:33N 46°10' W 123°55'0 0.0
2015-Feb-09 13:33N 46°10' W 123°55'0 0.0
2015-Feb-09 12:33N 46°10' W 123°55'0 0.0
2015-Feb-09 11:33N 46°10' W 123°55'0 0.0
2015-Feb-09 10:33N 46°10' W 123°55'0 0.0
2015-Feb-09 09:33N 46°10' W 123°55'0 0.0
2015-Feb-09 08:33N 46°10' W 123°55'0 0.0
2015-Feb-09 07:33N 46°10' W 123°55'0 0.0
2015-Feb-09 06:33N 46°10' W 123°55'0 0.0
2015-Feb-09 05:33N 46°10' W 123°55'0 0.0
2015-Feb-09 04:34N 46°10' W 123°55'0 0.0
2015-Feb-09 03:34N 46°10' W 123°55'0 0.0
2015-Feb-09 02:34N 46°10' W 123°55'0 0.0
2015-Feb-09 01:33N 46°10' W 123°55'0 0.0
2015-Feb-09 00:34N 46°10' W 123°55'0 0.0
2015-Feb-08 23:33N 46°10' W 123°55'0 0.0
2015-Feb-08 22:33N 46°10' W 123°55'0 0.0
2015-Feb-08 21:33N 46°10' W 123°55'0 0.0
2015-Feb-08 20:33N 46°10' W 123°55'0 0.0
2015-Feb-08 19:33N 46°10' W 123°55'0 0.0
2015-Feb-08 18:33N 46°10' W 123°55'0 0.0
2015-Feb-08 17:33N 46°10' W 123°55'0 0.0
2015-Feb-08 16:34N 46°10' W 123°55'0 0.0
2015-Feb-08 15:33N 46°10' W 123°55'0 0.0
2015-Feb-08 14:33N 46°10' W 123°55'0 0.0
2015-Feb-08 13:34N 46°10' W 123°55'0 0.0
2015-Feb-08 12:33N 46°10' W 123°55'0 0.0
2015-Feb-08 11:33N 46°10' W 123°55'0 0.0
2015-Feb-08 10:33N 46°10' W 123°55'0 0.0
2015-Feb-08 09:33N 46°10' W 123°55'0 0.0
2015-Feb-08 08:33N 46°10' W 123°55'0 0.0
2015-Feb-08 07:33N 46°10' W 123°55'0 0.0
2015-Feb-08 06:33N 46°10' W 123°55'0 0.0
2015-Feb-08 05:33N 46°10' W 123°55'0 0.0
2015-Feb-08 04:33N 46°10' W 123°55'0 0.0
2015-Feb-08 03:33N 46°10' W 123°55'0 0.0
2015-Feb-08 02:33N 46°10' W 123°55'0 0.0
2015-Feb-08 01:34N 46°10' W 123°55'0 0.0
2015-Feb-08 00:34N 46°10' W 123°55'0 0.0
2015-Feb-07 23:33N 46°10' W 123°55'0 0.0
2015-Feb-07 22:33N 46°10' W 123°55'0 0.0
2015-Feb-07 21:33N 46°10' W 123°55'0 0.0
2015-Feb-07 20:33N 46°10' W 123°55'0 0.0
2015-Feb-07 19:33N 46°10' W 123°55'0 0.0
2015-Feb-07 18:33N 46°10' W 123°55'0 0.0
2015-Feb-07 17:33N 46°10' W 123°55'0 0.0
2015-Feb-07 16:33N 46°10' W 123°55'0 0.0
2015-Feb-07 15:33N 46°10' W 123°55'0 0.0
2015-Feb-07 14:33N 46°10' W 123°55'0 0.0
2015-Feb-07 13:33N 46°10' W 123°55'0 0.0
2015-Feb-07 12:33N 46°10' W 123°55'0 0.0
2015-Feb-07 11:33N 46°10' W 123°55'0 0.0
2015-Feb-07 10:33N 46°10' W 123°55'0 0.0
2015-Feb-07 09:33N 46°10' W 123°55'0 0.0
2015-Feb-07 08:33N 46°10' W 123°55'0 0.0
2015-Feb-07 07:33N 46°10' W 123°55'0 0.0
2015-Feb-07 06:33N 46°10' W 123°55'0 0.0
2015-Feb-07 05:34N 46°10' W 123°55'0 0.0
2015-Feb-07 04:33N 46°10' W 123°55'0 0.0
2015-Feb-07 03:33N 46°10' W 123°55'0 0.0
2015-Feb-07 02:34N 46°10' W 123°55'0 0.0
2015-Feb-07 01:33N 46°10' W 123°55'0 0.0
2015-Feb-07 00:33N 46°10' W 123°55'0 0.0
2015-Feb-06 23:33N 46°10' W 123°55'0 0.0
2015-Feb-06 22:33N 46°10' W 123°55'0 0.0
2015-Feb-06 21:33N 46°10' W 123°55'0 0.0
2015-Feb-06 20:33N 46°10' W 123°55'0 0.0
2015-Feb-06 19:33N 46°10' W 123°55'0 0.0
2015-Feb-06 18:33N 46°10' W 123°55'  
Track history (hours):
 
Tides and Currents Weather Stations Pressure Air Temp Water Temp Dewpoint Dewpoint Depression Visibility Wind Speed Wind Dir Waves Ship Positions

Iron Lady

Owner: IRON LADY INC, SOUTH BEND, WA. More information available from US FCC via Universal Licensing System and Coast Guard Vessel Documentation Center.

Last reported at 2015-Feb-16 18:32 UTC. Time now 2015-Feb-28 23:04 UTC.
Position N 46°16' W 124°04'.
Warning: this ship's position is 12 days out of date.

Type: Fishing. MMSI: 367037240.

Date/timePositionNaut miles runAvg speedWind from/ knotsBaromVisibWave heightAir tempDewpointWater temp
2015-Feb-16 18:32N 46°16' W 124°04'8 8.1
2015-Feb-16 17:33N 46°11' W 123°54'2 1.7
2015-Feb-16 16:33N 46°11' W 123°52'3 2.6
2015-Feb-16 15:33N 46°10' W 123°55'0 0.0
2015-Feb-16 14:33N 46°10' W 123°55'0 0.0
2015-Feb-16 13:33N 46°10' W 123°55'0 0.0
2015-Feb-16 12:33N 46°10' W 123°55'0 0.0
2015-Feb-16 11:33N 46°10' W 123°55'0 0.0
2015-Feb-16 10:33N 46°10' W 123°55'0 0.0
2015-Feb-16 09:33N 46°10' W 123°55'0 0.0
2015-Feb-16 08:33N 46°10' W 123°55'0 0.0
2015-Feb-16 07:34N 46°10' W 123°55'0 0.0
2015-Feb-16 06:33N 46°10' W 123°55'0 0.0
2015-Feb-16 05:32N 46°10' W 123°55'0 0.0
2015-Feb-16 04:33N 46°10' W 123°55'0 0.0
2015-Feb-16 03:33N 46°10' W 123°55'0 0.0
2015-Feb-16 02:33N 46°10' W 123°55'0 0.0
2015-Feb-16 01:33N 46°10' W 123°55'0 0.0
2015-Feb-16 00:33N 46°10' W 123°55'0 0.0
2015-Feb-15 23:33N 46°10' W 123°55'0 0.0
2015-Feb-15 22:33N 46°10' W 123°55'0 0.0
2015-Feb-15 21:33N 46°10' W 123°55'0 0.0
2015-Feb-15 20:33N 46°10' W 123°55'0 0.0
2015-Feb-15 19:33N 46°10' W 123°55'0 0.0
2015-Feb-15 18:33N 46°10' W 123°55'0 0.0
2015-Feb-15 17:33N 46°10' W 123°55'0 0.0
2015-Feb-15 16:33N 46°10' W 123°55'0 0.0
2015-Feb-15 15:33N 46°10' W 123°55'0 0.0
2015-Feb-15 14:33N 46°10' W 123°55'0 0.0
2015-Feb-15 13:33N 46°10' W 123°55'0 0.0
2015-Feb-15 12:34N 46°10' W 123°55'0 0.0
2015-Feb-15 11:33N 46°10' W 123°55'0 0.0
2015-Feb-15 10:33N 46°10' W 123°55'0 0.0
2015-Feb-15 09:34N 46°10' W 123°55'0 0.0
2015-Feb-15 08:33N 46°10' W 123°55'0 0.0
2015-Feb-15 07:33N 46°10' W 123°55'0 0.0
2015-Feb-15 06:33N 46°10' W 123°55'0 0.0
2015-Feb-15 05:33N 46°10' W 123°55'0 0.0
2015-Feb-15 04:33N 46°10' W 123°55'0 0.0
2015-Feb-15 03:33N 46°10' W 123°55'0 0.0
2015-Feb-15 02:33N 46°10' W 123°55'0 0.0
2015-Feb-15 01:33N 46°10' W 123°55'0 0.0
2015-Feb-15 00:31N 46°10' W 123°55'0 0.0
2015-Feb-14 23:33N 46°10' W 123°55'0 0.0
2015-Feb-14 22:33N 46°10' W 123°55'0 0.0
2015-Feb-14 21:33N 46°10' W 123°55'0 0.0
2015-Feb-14 20:33N 46°10' W 123°55'0 0.0
2015-Feb-14 19:33N 46°10' W 123°55'0 0.0
2015-Feb-14 18:33N 46°10' W 123°55'0 0.0
2015-Feb-14 17:33N 46°10' W 123°55'0 0.0
2015-Feb-14 16:33N 46°10' W 123°55'0 0.0
2015-Feb-14 15:33N 46°10' W 123°55'0 0.0
2015-Feb-14 14:33N 46°10' W 123°55'0 0.0
2015-Feb-14 13:33N 46°10' W 123°55'0 0.0
2015-Feb-14 12:33N 46°10' W 123°55'0 0.0
2015-Feb-14 11:33N 46°10' W 123°55'0 0.0
2015-Feb-14 10:33N 46°10' W 123°55'0 0.0
2015-Feb-14 09:33N 46°10' W 123°55'0 0.0
2015-Feb-14 08:33N 46°10' W 123°55'0 0.0
2015-Feb-14 07:33N 46°10' W 123°55'0 0.0
2015-Feb-14 06:33N 46°10' W 123°55'0 0.0
2015-Feb-14 05:33N 46°10' W 123°55'0 0.0
2015-Feb-14 04:34N 46°10' W 123°55'0 0.0
2015-Feb-14 03:33N 46°10' W 123°55'0 0.0
2015-Feb-14 02:33N 46°10' W 123°55'0 0.0
2015-Feb-14 01:33N 46°10' W 123°55'0 0.0
2015-Feb-14 00:33N 46°10' W 123°55'0 0.0
2015-Feb-13 23:34N 46°10' W 123°55'0 0.0
2015-Feb-13 22:33N 46°10' W 123°55'0 0.0
2015-Feb-13 21:33N 46°10' W 123°55'0 0.0
2015-Feb-13 20:33N 46°10' W 123°55'0 0.0
2015-Feb-13 19:33N 46°10' W 123°55'3 3.5
2015-Feb-13 18:33N 46°12' W 123°50'1 0.9
2015-Feb-13 17:33N 46°11' W 123°51'0 0.0
2015-Feb-13 16:33N 46°11' W 123°51'0 0.0
2015-Feb-13 15:34N 46°11' W 123°51'0 0.0
2015-Feb-13 14:33N 46°11' W 123°51'0 0.0
2015-Feb-13 13:33N 46°11' W 123°51'2 1.8
2015-Feb-13 12:33N 46°11' W 123°54'1 1.3
2015-Feb-13 11:34N 46°10' W 123°55'0 0.0
2015-Feb-13 10:33N 46°10' W 123°55'0 0.0
2015-Feb-13 09:33N 46°10' W 123°55'0 0.0
2015-Feb-13 08:34N 46°10' W 123°55'0 0.0
2015-Feb-13 07:33N 46°10' W 123°55'0 0.0
2015-Feb-13 06:33N 46°10' W 123°55'0 0.0
2015-Feb-13 05:33N 46°10' W 123°55'0 0.0
2015-Feb-13 04:33N 46°10' W 123°55'0 0.0
2015-Feb-13 03:34N 46°10' W 123°55'0 0.0
2015-Feb-13 02:33N 46°10' W 123°55'0 0.0
2015-Feb-13 01:33N 46°10' W 123°55'0 0.0
2015-Feb-13 00:33N 46°10' W 123°55'2 2.5
2015-Feb-12 23:33N 46°12' W 123°56'  
2015-Feb-10 14:11N 46°14' W 124°08'6 8.8
2015-Feb-10 13:33N 46°15' W 123°60'6 5.6
2015-Feb-10 12:33N 46°10' W 123°55'0 0.0
2015-Feb-10 11:34N 46°10' W 123°55'0 0.0
2015-Feb-10 10:34N 46°10' W 123°55'0 0.0
2015-Feb-10 09:33N 46°10' W 123°55'0 0.0
2015-Feb-10 08:33N 46°10' W 123°55'0 0.0
2015-Feb-10 07:34N 46°10' W 123°55'0 0.0
2015-Feb-10 06:33N 46°10' W 123°55'0 0.0
2015-Feb-10 05:33N 46°10' W 123°55'0 0.0
2015-Feb-10 04:33N 46°10' W 123°55'0 0.0
2015-Feb-10 03:33N 46°10' W 123°55'0 0.0
2015-Feb-10 02:33N 46°10' W 123°55'0 0.0
2015-Feb-10 01:33N 46°10' W 123°55'0 0.0
2015-Feb-10 00:33N 46°10' W 123°55'0 0.0
2015-Feb-09 23:33N 46°10' W 123°55'0 0.0
2015-Feb-09 22:31N 46°10' W 123°55'0 0.0
2015-Feb-09 21:34N 46°10' W 123°55'0 0.0
2015-Feb-09 20:33N 46°10' W 123°55'0 0.0
2015-Feb-09 19:33N 46°10' W 123°55'1 1.4
2015-Feb-09 18:33N 46°11' W 123°54'2 1.5
2015-Feb-09 17:33N 46°11' W 123°51'3 2.6
2015-Feb-09 16:33N 46°10' W 123°55'0 0.0
2015-Feb-09 15:33N 46°10' W 123°55'0 0.0
2015-Feb-09 14:33N 46°10' W 123°55'0 0.0
2015-Feb-09 13:33N 46°10' W 123°55'0 0.0
2015-Feb-09 12:33N 46°10' W 123°55'0 0.0
2015-Feb-09 11:33N 46°10' W 123°55'0 0.0
2015-Feb-09 10:33N 46°10' W 123°55'0 0.0
2015-Feb-09 09:33N 46°10' W 123°55'0 0.0
2015-Feb-09 08:33N 46°10' W 123°55'0 0.0
2015-Feb-09 07:33N 46°10' W 123°55'0 0.0
2015-Feb-09 06:33N 46°10' W 123°55'0 0.0
2015-Feb-09 05:33N 46°10' W 123°55'0 0.0
2015-Feb-09 04:34N 46°10' W 123°55'0 0.0
2015-Feb-09 03:34N 46°10' W 123°55'0 0.0
2015-Feb-09 02:34N 46°10' W 123°55'0 0.0
2015-Feb-09 01:33N 46°10' W 123°55'0 0.0
2015-Feb-09 00:34N 46°10' W 123°55'0 0.0
2015-Feb-08 23:33N 46°10' W 123°55'0 0.0
2015-Feb-08 22:33N 46°10' W 123°55'0 0.0
2015-Feb-08 21:33N 46°10' W 123°55'0 0.0
2015-Feb-08 20:33N 46°10' W 123°55'0 0.0
2015-Feb-08 19:33N 46°10' W 123°55'0 0.0
2015-Feb-08 18:33N 46°10' W 123°55'0 0.0
2015-Feb-08 17:33N 46°10' W 123°55'0 0.0
2015-Feb-08 16:34N 46°10' W 123°55'0 0.0
2015-Feb-08 15:33N 46°10' W 123°55'0 0.0
2015-Feb-08 14:33N 46°10' W 123°55'0 0.0
2015-Feb-08 13:34N 46°10' W 123°55'0 0.0
2015-Feb-08 12:33N 46°10' W 123°55'0 0.0
2015-Feb-08 11:33N 46°10' W 123°55'0 0.0
2015-Feb-08 10:33N 46°10' W 123°55'0 0.0
2015-Feb-08 09:33N 46°10' W 123°55'0 0.0
2015-Feb-08 08:33N 46°10' W 123°55'0 0.0
2015-Feb-08 07:33N 46°10' W 123°55'0 0.0
2015-Feb-08 06:33N 46°10' W 123°55'0 0.0
2015-Feb-08 05:33N 46°10' W 123°55'0 0.0
2015-Feb-08 04:33N 46°10' W 123°55'0 0.0
2015-Feb-08 03:33N 46°10' W 123°55'0 0.0
2015-Feb-08 02:33N 46°10' W 123°55'0 0.0
2015-Feb-08 01:34N 46°10' W 123°55'0 0.0
2015-Feb-08 00:34N 46°10' W 123°55'0 0.0
2015-Feb-07 23:33N 46°10' W 123°55'0 0.0
2015-Feb-07 22:33N 46°10' W 123°55'0 0.0
2015-Feb-07 21:33N 46°10' W 123°55'0 0.0
2015-Feb-07 20:33N 46°10' W 123°55'0 0.0
2015-Feb-07 19:33N 46°10' W 123°55'0 0.0
2015-Feb-07 18:33N 46°10' W 123°55'0 0.0
2015-Feb-07 17:33N 46°10' W 123°55'0 0.0
2015-Feb-07 16:33N 46°10' W 123°55'0 0.0
2015-Feb-07 15:33N 46°10' W 123°55'0 0.0
2015-Feb-07 14:33N 46°10' W 123°55'0 0.0
2015-Feb-07 13:33N 46°10' W 123°55'0 0.0
2015-Feb-07 12:33N 46°10' W 123°55'0 0.0
2015-Feb-07 11:33N 46°10' W 123°55'0 0.0
2015-Feb-07 10:33N 46°10' W 123°55'0 0.0
2015-Feb-07 09:33N 46°10' W 123°55'0 0.0
2015-Feb-07 08:33N 46°10' W 123°55'0 0.0
2015-Feb-07 07:33N 46°10' W 123°55'0 0.0
2015-Feb-07 06:33N 46°10' W 123°55'0 0.0
2015-Feb-07 05:34N 46°10' W 123°55'0 0.0
2015-Feb-07 04:33N 46°10' W 123°55'0 0.0
2015-Feb-07 03:33N 46°10' W 123°55'0 0.0
2015-Feb-07 02:34N 46°10' W 123°55'0 0.0
2015-Feb-07 01:33N 46°10' W 123°55'0 0.0
2015-Feb-07 00:33N 46°10' W 123°55'0 0.0
2015-Feb-06 23:33N 46°10' W 123°55'0 0.0
2015-Feb-06 22:33N 46°10' W 123°55'0 0.0
2015-Feb-06 21:33N 46°10' W 123°55'0 0.0
2015-Feb-06 20:33N 46°10' W 123°55'0 0.0
2015-Feb-06 19:33N 46°10' W 123°55'0 0.0
2015-Feb-06 18:33N 46°10' W 123°55'  

Dump ship's entire track history